createdAt,value
2022-09-24T00:01:29.049Z,12.29
2022-09-24T00:03:59.418Z,12.27
2022-09-24T00:06:26.512Z,12.34
2022-09-24T00:08:56.886Z,12.31
2022-09-24T00:11:24.933Z,12.28
2022-09-24T00:13:52.369Z,12.17
2022-09-24T00:16:21.652Z,12.20
2022-09-24T00:18:47.482Z,12.22
2022-09-24T00:21:18.436Z,12.17
2022-09-24T00:23:48.237Z,12.17
2022-09-24T00:26:32.608Z,12.23
2022-09-24T00:28:59.287Z,12.25
2022-09-24T00:31:27.230Z,12.12
2022-09-24T00:33:53.879Z,12.26
2022-09-24T00:36:21.030Z,12.08
2022-09-24T00:38:53.009Z,12.06
2022-09-24T00:41:20.981Z,12.18
2022-09-24T00:43:48.666Z,12.23
2022-09-24T00:46:21.148Z,12.11
2022-09-24T00:48:49.687Z,12.19
2022-09-24T00:51:20.165Z,12.13
2022-09-24T00:53:49.033Z,12.30
2022-09-24T00:56:16.178Z,12.29
2022-09-24T00:58:51.632Z,12.29
2022-09-24T01:01:18.777Z,12.25
2022-09-24T01:03:46.280Z,12.28
2022-09-24T01:06:13.170Z,12.34
2022-09-24T01:08:39.723Z,12.32
2022-09-24T01:11:50.453Z,12.30
2022-09-24T01:14:44.239Z,12.25
2022-09-24T01:17:44.941Z,12.32
2022-09-24T01:20:10.727Z,12.47
2022-09-24T01:22:54.373Z,12.41
2022-09-24T01:25:32.348Z,12.35
2022-09-24T01:28:31.290Z,12.27
2022-09-24T01:31:03.316Z,12.19
2022-09-24T01:33:31.872Z,12.26
2022-09-24T01:36:06.092Z,12.20
2022-09-24T01:38:37.902Z,12.17
2022-09-24T01:41:07.007Z,12.22
2022-09-24T01:43:33.274Z,12.18
2022-09-24T01:46:03.450Z,12.30
2022-09-24T01:48:29.632Z,12.25
2022-09-24T01:51:27.145Z,12.34
2022-09-24T01:54:26.448Z,12.21
2022-09-24T01:57:07.172Z,12.21
2022-09-24T01:59:43.351Z,12.20
2022-09-24T02:02:28.179Z,12.22
2022-09-24T02:05:26.502Z,12.24
2022-09-24T02:08:04.431Z,12.20
2022-09-24T02:10:37.200Z,12.04
2022-09-24T02:13:06.976Z,12.06
2022-09-24T02:15:36.657Z,11.99
2022-09-24T02:18:08.239Z,12.17
2022-09-24T02:20:35.813Z,12.23
2022-09-24T02:23:04.185Z,12.12
2022-09-24T02:25:36.537Z,12.09
2022-09-24T02:28:02.535Z,12.09
2022-09-24T02:30:32.237Z,12.09
2022-09-24T02:32:58.861Z,12.05
2022-09-24T02:35:24.676Z,12.09
2022-09-24T02:37:50.471Z,12.05
2022-09-24T02:40:16.412Z,12.10
2022-09-24T02:42:42.911Z,12.20
2022-09-24T02:45:10.617Z,12.13
2022-09-24T02:47:36.878Z,12.05
2022-09-24T02:50:03.111Z,12.09
2022-09-24T02:52:28.922Z,12.04
2022-09-24T02:54:54.718Z,12.01
2022-09-24T02:57:20.517Z,12.05
2022-09-24T02:59:51.457Z,12.06
2022-09-24T03:02:17.284Z,12.10
2022-09-24T03:04:43.106Z,12.11
2022-09-24T03:07:09.529Z,12.13
2022-09-24T03:09:35.276Z,12.05
2022-09-24T03:12:01.563Z,12.15
2022-09-24T03:14:27.430Z,12.21
2022-09-24T03:16:53.213Z,12.32
2022-09-24T03:19:19.022Z,12.38
2022-09-24T03:21:44.757Z,12.46
2022-09-24T03:24:10.594Z,12.47
2022-09-24T03:26:37.307Z,12.47
2022-09-24T03:29:03.530Z,12.41
2022-09-24T03:31:29.381Z,12.33
2022-09-24T03:33:56.670Z,12.42
2022-09-24T03:36:25.036Z,12.45
2022-09-24T03:38:55.988Z,12.45
2022-09-24T03:41:26.867Z,12.43
2022-09-24T03:43:53.418Z,12.41
2022-09-24T03:46:19.508Z,12.42
2022-09-24T03:48:46.516Z,12.42
2022-09-24T03:51:15.090Z,12.34
2022-09-24T03:53:41.166Z,12.29
2022-09-24T03:56:07.941Z,12.25
2022-09-24T03:58:37.180Z,12.30
2022-09-24T04:01:03.099Z,12.20
2022-09-24T04:03:28.906Z,12.19
2022-09-24T04:05:55.046Z,12.18
2022-09-24T04:08:22.826Z,12.05
2022-09-24T04:10:49.914Z,12.08
2022-09-24T04:13:16.945Z,12.02
2022-09-24T04:15:42.974Z,12.00
2022-09-24T04:18:09.305Z,11.90
2022-09-24T04:20:36.148Z,11.93
2022-09-24T04:23:03.230Z,11.92
2022-09-24T04:25:30.792Z,11.81
2022-09-24T04:28:02.079Z,11.79
2022-09-24T04:30:29.297Z,11.77
2022-09-24T04:32:59.172Z,11.70
2022-09-24T04:35:25.151Z,11.62
2022-09-24T04:37:50.947Z,11.71
2022-09-24T04:40:17.817Z,11.70
2022-09-24T04:42:45.625Z,11.68
2022-09-24T04:45:13.078Z,11.74
2022-09-24T04:47:41.927Z,11.78
2022-09-24T04:50:10.626Z,11.78
2022-09-24T04:52:37.314Z,11.72
2022-09-24T04:55:04.230Z,11.70
2022-09-24T04:57:35.562Z,11.66
2022-09-24T05:00:07.608Z,11.61
2022-09-24T05:02:33.508Z,11.64
2022-09-24T05:04:59.425Z,11.55
2022-09-24T05:07:25.933Z,11.44
2022-09-24T05:09:51.734Z,11.42
2022-09-24T05:12:19.781Z,11.52
2022-09-24T05:14:46.012Z,11.26
2022-09-24T05:17:11.879Z,11.37
2022-09-24T05:19:37.700Z,11.27
2022-09-24T05:22:03.592Z,11.35
2022-09-24T05:24:29.430Z,11.34
2022-09-24T05:27:10.343Z,11.22
2022-09-24T05:29:42.633Z,11.25
2022-09-24T05:32:14.601Z,11.25
2022-09-24T05:34:42.955Z,11.19
2022-09-24T05:37:09.697Z,11.29
2022-09-24T05:39:35.573Z,11.33
2022-09-24T05:42:03.506Z,11.40
2022-09-24T05:44:30.514Z,11.45
2022-09-24T05:46:56.778Z,11.55
2022-09-24T05:49:23.097Z,11.54
2022-09-24T05:51:50.235Z,11.45
2022-09-24T05:54:17.210Z,11.32
2022-09-24T05:56:43.441Z,11.41
2022-09-24T05:59:09.756Z,11.36
2022-09-24T06:01:35.636Z,11.44
2022-09-24T06:04:06.167Z,11.35
2022-09-24T06:06:34.731Z,11.39
2022-09-24T06:09:00.707Z,11.40
2022-09-24T06:11:27.424Z,11.58
2022-09-24T06:13:53.201Z,11.52
2022-09-24T06:16:19.209Z,11.53
2022-09-24T06:18:45.702Z,11.54
2022-09-24T06:21:14.054Z,11.50
2022-09-24T06:23:41.834Z,11.61
2022-09-24T06:26:10.735Z,11.57
2022-09-24T06:28:37.510Z,11.59
2022-09-24T06:31:03.945Z,11.59
2022-09-24T06:33:29.977Z,11.63
2022-09-24T06:36:00.119Z,11.58
2022-09-24T06:38:26.675Z,11.59
2022-09-24T06:40:52.695Z,11.60
2022-09-24T06:43:18.516Z,11.79
2022-09-24T06:45:44.820Z,11.84
2022-09-24T06:48:12.821Z,11.86
2022-09-24T06:50:41.420Z,11.75
2022-09-24T06:53:08.231Z,11.91
2022-09-24T06:55:35.282Z,11.94
2022-09-24T06:58:05.866Z,11.92
2022-09-24T07:00:32.676Z,11.90
2022-09-24T07:02:58.627Z,11.99
2022-09-24T07:05:24.673Z,11.82
2022-09-24T07:07:50.906Z,11.88
2022-09-24T07:10:16.799Z,11.86
2022-09-24T07:12:42.875Z,11.85
2022-09-24T07:15:09.721Z,11.77
2022-09-24T07:17:35.718Z,11.78
2022-09-24T07:20:02.836Z,11.85
2022-09-24T07:22:28.642Z,12.04
2022-09-24T07:24:54.390Z,12.07
2022-09-24T07:27:22.992Z,12.06
2022-09-24T07:29:49.151Z,12.19
2022-09-24T07:32:18.971Z,12.31
2022-09-24T07:34:45.203Z,12.36
2022-09-24T07:37:11.681Z,12.46
2022-09-24T07:39:37.557Z,12.52
2022-09-24T07:42:05.000Z,12.53
2022-09-24T07:44:30.857Z,12.60
2022-09-24T07:46:57.697Z,12.63
2022-09-24T07:49:23.865Z,12.69
2022-09-24T07:51:49.778Z,12.72
2022-09-24T07:54:17.375Z,12.65
2022-09-24T07:56:43.450Z,12.75
2022-09-24T07:59:10.473Z,12.64
2022-09-24T08:01:36.900Z,12.75
2022-09-24T08:04:03.975Z,12.92
2022-09-24T08:06:37.872Z,12.79
2022-09-24T08:09:04.873Z,12.91
2022-09-24T08:11:30.652Z,13.02
2022-09-24T08:13:57.038Z,12.97
2022-09-24T08:16:25.162Z,13.12
2022-09-24T08:18:51.106Z,13.21
2022-09-24T08:21:17.114Z,13.14
2022-09-24T08:23:43.409Z,13.31
2022-09-24T08:26:10.966Z,13.54
2022-09-24T08:28:37.526Z,13.69
2022-09-24T08:31:08.263Z,13.87
2022-09-24T08:33:35.680Z,14.00
2022-09-24T08:36:07.380Z,14.18
2022-09-24T08:38:34.011Z,14.35
2022-09-24T08:41:36.697Z,14.46
2022-09-24T08:44:49.521Z,14.38
2022-09-24T08:47:47.446Z,14.50
2022-09-24T08:50:19.039Z,14.69
2022-09-24T08:52:53.845Z,14.75
2022-09-24T08:55:46.687Z,14.69
2022-09-24T08:58:41.890Z,14.88
2022-09-24T09:01:36.712Z,14.83
2022-09-24T09:04:09.966Z,14.72
2022-09-24T09:07:01.516Z,14.62
2022-09-24T09:09:45.553Z,14.70
2022-09-24T09:12:20.102Z,14.66
2022-09-24T09:15:17.079Z,14.58
2022-09-24T09:17:45.803Z,14.54
2022-09-24T09:20:17.034Z,14.47
2022-09-24T09:22:47.512Z,14.58
2022-09-24T09:25:25.135Z,14.61
2022-09-24T09:27:57.846Z,14.74
2022-09-24T09:30:23.901Z,14.82
2022-09-24T09:33:00.888Z,14.84
2022-09-24T09:35:46.037Z,14.94
2022-09-24T09:38:27.831Z,15.04
2022-09-24T09:41:05.767Z,15.04
2022-09-24T09:43:31.957Z,15.13
2022-09-24T09:46:19.667Z,15.26
2022-09-24T09:48:51.556Z,15.28
2022-09-24T09:51:22.324Z,15.13
2022-09-24T09:53:59.749Z,15.22
2022-09-24T09:56:31.425Z,15.20
2022-09-24T09:59:06.242Z,15.17
2022-09-24T10:01:35.042Z,14.97
2022-09-24T10:04:03.849Z,15.04
2022-09-24T10:06:35.466Z,15.08
2022-09-24T10:09:18.919Z,15.06
2022-09-24T10:11:46.117Z,14.96
2022-09-24T10:14:14.173Z,14.77
2022-09-24T10:16:47.340Z,14.63
2022-09-24T10:19:24.044Z,14.79
2022-09-24T10:21:52.012Z,14.92
2022-09-24T10:24:28.489Z,14.87
2022-09-24T10:26:54.418Z,15.18
2022-09-24T10:29:57.056Z,15.25
2022-09-24T10:32:25.520Z,15.28
2022-09-24T10:35:20.937Z,15.42
2022-09-24T10:37:55.474Z,15.97
2022-09-24T10:40:29.264Z,16.28
2022-09-24T10:43:00.131Z,17.31
2022-09-24T10:45:49.873Z,17.76
2022-09-24T10:48:18.981Z,18.35
2022-09-24T10:50:55.391Z,18.73
2022-09-24T10:53:43.403Z,19.18
2022-09-24T10:56:15.109Z,19.18
2022-09-24T10:59:03.165Z,18.99
2022-09-24T11:01:47.101Z,18.85
2022-09-24T11:04:33.983Z,18.31
2022-09-24T11:07:28.233Z,17.69
2022-09-24T11:10:00.447Z,17.54
2022-09-24T11:12:34.594Z,17.12
2022-09-24T11:15:11.132Z,16.71
2022-09-24T11:17:50.974Z,16.88
2022-09-24T11:20:22.596Z,16.74
2022-09-24T11:23:23.461Z,16.31
2022-09-24T11:26:03.168Z,15.99
2022-09-24T11:29:14.546Z,15.92
2022-09-24T11:31:49.805Z,15.78
2022-09-24T11:34:37.079Z,15.47
2022-09-24T11:37:22.088Z,15.41
2022-09-24T11:40:02.680Z,15.29
2022-09-24T11:42:57.616Z,15.16
2022-09-24T11:45:41.446Z,15.01
2022-09-24T11:48:23.215Z,14.96
2022-09-24T11:51:01.109Z,14.91
2022-09-24T11:53:44.259Z,14.85
2022-09-24T11:56:13.913Z,14.80
2022-09-24T11:58:48.116Z,14.84
2022-09-24T12:01:24.384Z,14.93
2022-09-24T12:04:05.249Z,14.81
2022-09-24T12:06:44.222Z,14.85
2022-09-24T12:09:22.325Z,14.76
2022-09-24T12:11:54.570Z,14.64
2022-09-24T12:14:30.098Z,14.48
2022-09-24T12:17:06.594Z,14.47
2022-09-24T12:19:41.429Z,14.19
2022-09-24T12:22:09.940Z,14.11
2022-09-24T12:24:53.508Z,14.02
2022-09-24T12:27:34.226Z,14.10
2022-09-24T12:30:36.330Z,13.93
2022-09-24T12:33:22.347Z,13.85
2022-09-24T12:36:18.819Z,13.71
2022-09-24T12:38:49.768Z,13.61
2022-09-24T12:41:24.717Z,13.69
2022-09-24T12:44:00.652Z,13.66
2022-09-24T12:46:40.430Z,13.68
2022-09-24T12:49:24.670Z,13.67
2022-09-24T12:51:56.008Z,13.45
2022-09-24T12:54:31.079Z,13.44
2022-09-24T12:57:25.278Z,13.47
2022-09-24T12:59:59.941Z,13.44
2022-09-24T13:02:46.762Z,13.51
2022-09-24T13:05:28.573Z,13.51
2022-09-24T13:08:00.133Z,13.64
2022-09-24T13:10:27.553Z,13.81
2022-09-24T13:12:55.116Z,13.99
2022-09-24T13:15:34.881Z,13.90
2022-09-24T13:18:10.384Z,13.90
2022-09-24T13:20:40.653Z,13.78
2022-09-24T13:23:13.275Z,13.86
2022-09-24T13:25:39.099Z,13.82
2022-09-24T13:28:35.747Z,13.89
2022-09-24T13:31:22.971Z,13.76
2022-09-24T13:33:54.361Z,13.66
2022-09-24T13:36:48.189Z,13.63
2022-09-24T13:39:27.104Z,13.63
2022-09-24T13:42:03.361Z,13.34
2022-09-24T13:44:34.020Z,13.28
2022-09-24T13:47:38.228Z,13.10
2022-09-24T13:50:28.384Z,13.02
2022-09-24T13:52:56.966Z,13.02
2022-09-24T13:55:52.496Z,13.04
2022-09-24T13:58:32.586Z,13.17
2022-09-24T14:01:01.875Z,13.12
2022-09-24T14:03:28.759Z,13.23
2022-09-24T14:05:56.506Z,13.20
2022-09-24T14:08:24.045Z,13.12
2022-09-24T14:10:50.518Z,13.20
2022-09-24T14:13:25.861Z,13.21
2022-09-24T14:16:06.787Z,13.12
2022-09-24T14:18:33.260Z,13.18
2022-09-24T14:21:15.433Z,13.29
2022-09-24T14:23:52.047Z,13.33
2022-09-24T14:26:31.390Z,13.35
2022-09-24T14:29:05.462Z,13.35
2022-09-24T14:31:31.400Z,13.25
2022-09-24T14:34:03.314Z,13.27
2022-09-24T14:36:29.285Z,13.19
2022-09-24T14:39:04.791Z,13.31
2022-09-24T14:41:33.822Z,13.32
2022-09-24T14:44:05.404Z,13.31
2022-09-24T14:46:35.305Z,13.46
2022-09-24T14:49:16.755Z,13.41
2022-09-24T14:51:52.079Z,13.39
2022-09-24T14:54:28.110Z,13.37
2022-09-24T14:56:54.494Z,13.30
2022-09-24T14:59:35.498Z,13.34
2022-09-24T15:02:14.790Z,13.44
2022-09-24T15:04:45.430Z,13.34
2022-09-24T15:07:20.722Z,13.32
2022-09-24T15:10:01.759Z,13.37
2022-09-24T15:12:36.303Z,13.42
2022-09-24T15:15:26.611Z,13.34
2022-09-24T15:17:52.422Z,13.42
2022-09-24T15:20:18.268Z,13.31
2022-09-24T15:22:46.130Z,13.28
2022-09-24T15:25:13.770Z,13.24
2022-09-24T15:27:41.864Z,13.06
2022-09-24T15:30:16.918Z,12.97
2022-09-24T15:32:42.879Z,13.00
2022-09-24T15:35:13.959Z,12.99
2022-09-24T15:37:40.146Z,12.93
2022-09-24T15:40:29.964Z,12.86
2022-09-24T15:42:55.788Z,12.81
2022-09-24T15:45:23.687Z,12.89
2022-09-24T15:47:50.610Z,12.90
2022-09-24T15:50:18.320Z,12.93
2022-09-24T15:52:49.766Z,12.91
2022-09-24T15:55:18.479Z,12.82
2022-09-24T15:57:46.016Z,12.90
2022-09-24T16:00:20.360Z,12.95
2022-09-24T16:02:51.975Z,12.92
2022-09-24T16:05:18.653Z,13.00
2022-09-24T16:07:44.842Z,12.95
2022-09-24T16:10:12.611Z,12.99
2022-09-24T16:12:39.528Z,12.96
2022-09-24T16:15:06.384Z,13.00
2022-09-24T16:17:32.668Z,13.02
2022-09-24T16:19:58.760Z,12.94
2022-09-24T16:22:24.623Z,12.86
2022-09-24T16:24:50.422Z,12.77
2022-09-24T16:27:16.203Z,12.64
2022-09-24T16:29:41.916Z,12.64
2022-09-24T16:32:07.783Z,12.70
2022-09-24T16:34:33.844Z,12.74
2022-09-24T16:37:00.007Z,12.64
2022-09-24T16:39:25.765Z,12.63
2022-09-24T16:41:52.198Z,12.59
2022-09-24T16:44:18.541Z,12.67
2022-09-24T16:46:44.840Z,12.57
2022-09-24T16:49:11.697Z,12.63
2022-09-24T16:51:37.901Z,12.46
2022-09-24T16:54:07.364Z,12.37
2022-09-24T16:56:33.619Z,12.41
2022-09-24T16:58:59.798Z,12.34
2022-09-24T17:01:25.666Z,12.31
2022-09-24T17:03:56.228Z,12.26
2022-09-24T17:06:29.182Z,12.27
2022-09-24T17:09:14.154Z,12.30
2022-09-24T17:11:40.605Z,12.36
2022-09-24T17:14:11.561Z,12.24
2022-09-24T17:16:38.548Z,12.17
2022-09-24T17:19:06.587Z,12.26
2022-09-24T17:21:33.944Z,12.15
2022-09-24T17:23:59.810Z,12.17
2022-09-24T17:26:25.609Z,12.14
2022-09-24T17:28:53.336Z,12.14
2022-09-24T17:31:22.172Z,12.09
2022-09-24T17:34:02.264Z,12.08
2022-09-24T17:36:29.863Z,12.03
2022-09-24T17:38:56.797Z,12.20
2022-09-24T17:41:22.672Z,11.96
2022-09-24T17:43:49.152Z,11.79
2022-09-24T17:46:17.648Z,11.71
2022-09-24T17:48:45.801Z,11.78
2022-09-24T17:51:15.761Z,11.89
2022-09-24T17:53:42.343Z,11.83
2022-09-24T17:56:10.608Z,11.84
2022-09-24T17:58:38.350Z,11.69
2022-09-24T18:01:16.691Z,11.66
2022-09-24T18:03:43.232Z,11.74
2022-09-24T18:06:11.759Z,11.74
2022-09-24T18:08:44.855Z,11.80
2022-09-24T18:11:24.990Z,11.64
2022-09-24T18:13:53.329Z,11.64
2022-09-24T18:16:21.767Z,11.77
2022-09-24T18:18:50.617Z,11.84
2022-09-24T18:21:19.756Z,11.81
2022-09-24T18:23:46.173Z,11.81
2022-09-24T18:26:16.103Z,11.91
2022-09-24T18:28:44.936Z,11.96
2022-09-24T18:31:10.812Z,11.92
2022-09-24T18:33:39.033Z,11.89
2022-09-24T18:36:07.820Z,11.88
2022-09-24T18:38:34.585Z,11.93
2022-09-24T18:41:06.996Z,11.96
2022-09-24T18:43:32.963Z,11.94
2022-09-24T18:46:04.004Z,12.01
2022-09-24T18:48:30.098Z,12.03
2022-09-24T18:50:55.957Z,12.06
2022-09-24T18:53:21.758Z,12.10
2022-09-24T18:55:47.534Z,12.07
2022-09-24T18:58:13.393Z,11.99
2022-09-24T19:00:53.234Z,11.86
2022-09-24T19:03:21.272Z,11.80
2022-09-24T19:05:48.708Z,11.87
2022-09-24T19:08:14.642Z,11.94
2022-09-24T19:10:41.266Z,11.87
2022-09-24T19:13:07.128Z,11.82
2022-09-24T19:15:40.157Z,11.96
2022-09-24T19:18:11.264Z,11.97
2022-09-24T19:20:42.882Z,11.95
2022-09-24T19:23:09.227Z,11.99
2022-09-24T19:25:36.812Z,11.98
2022-09-24T19:28:04.308Z,11.90
2022-09-24T19:30:36.971Z,11.94
2022-09-24T19:33:03.033Z,12.02
2022-09-24T19:35:28.866Z,11.89
2022-09-24T19:37:54.663Z,12.03
2022-09-24T19:40:20.619Z,12.06
2022-09-24T19:42:46.408Z,12.00
2022-09-24T19:45:12.322Z,11.92
2022-09-24T19:47:38.127Z,11.91
2022-09-24T19:50:04.363Z,11.98
2022-09-24T19:52:31.384Z,11.97
2022-09-24T19:54:57.149Z,12.00
2022-09-24T19:57:22.932Z,12.00
2022-09-24T19:59:48.678Z,12.02
2022-09-24T20:02:14.614Z,11.94
2022-09-24T20:04:40.736Z,11.96
2022-09-24T20:07:07.065Z,11.96
2022-09-24T20:09:32.987Z,11.96
2022-09-24T20:11:59.014Z,11.97
2022-09-24T20:14:25.115Z,11.87
2022-09-24T20:16:50.975Z,11.92
2022-09-24T20:19:17.202Z,11.97
2022-09-24T20:21:43.031Z,11.99
2022-09-24T20:24:11.508Z,12.00
2022-09-24T20:26:56.080Z,11.97
2022-09-24T20:29:22.738Z,11.98
2022-09-24T20:31:52.399Z,11.98
2022-09-24T20:34:20.511Z,12.00
2022-09-24T20:36:46.879Z,11.96
2022-09-24T20:39:12.696Z,12.00
2022-09-24T20:41:38.453Z,12.10
2022-09-24T20:44:04.279Z,12.02
2022-09-24T20:46:30.209Z,12.00
2022-09-24T20:48:58.334Z,12.04
2022-09-24T20:51:25.617Z,12.02
2022-09-24T20:53:53.058Z,12.06
2022-09-24T20:56:19.678Z,12.02
2022-09-24T20:58:49.577Z,12.01
2022-09-24T21:01:16.798Z,12.03
2022-09-24T21:03:44.995Z,12.01
2022-09-24T21:06:12.018Z,11.96
2022-09-24T21:08:40.150Z,11.94
2022-09-24T21:11:08.457Z,12.03
2022-09-24T21:13:38.844Z,11.90
2022-09-24T21:16:04.845Z,11.85
2022-09-24T21:18:43.713Z,11.90
2022-09-24T21:21:17.651Z,11.92
2022-09-24T21:23:44.997Z,11.93
2022-09-24T21:26:17.956Z,11.92
2022-09-24T21:28:48.244Z,11.89
2022-09-24T21:31:16.445Z,11.80
2022-09-24T21:33:47.143Z,11.82
2022-09-24T21:36:17.891Z,11.77
2022-09-24T21:38:53.756Z,11.74
2022-09-24T21:41:23.969Z,11.84
2022-09-24T21:43:50.058Z,11.80
2022-09-24T21:46:15.973Z,11.95
2022-09-24T21:48:41.855Z,11.87
2022-09-24T21:51:10.537Z,11.81
2022-09-24T21:53:37.167Z,11.79
2022-09-24T21:56:04.349Z,11.81
2022-09-24T21:58:30.633Z,11.86
2022-09-24T22:01:04.682Z,11.90
2022-09-24T22:03:31.234Z,11.80
2022-09-24T22:05:58.909Z,11.79
2022-09-24T22:08:28.376Z,11.67
2022-09-24T22:11:03.683Z,11.59
2022-09-24T22:13:31.349Z,11.67
2022-09-24T22:15:59.092Z,11.75
2022-09-24T22:18:27.331Z,11.69
2022-09-24T22:20:54.726Z,11.74
2022-09-24T22:23:21.448Z,11.66
2022-09-24T22:25:53.496Z,11.78
2022-09-24T22:28:23.631Z,11.74
2022-09-24T22:30:50.489Z,11.66
2022-09-24T22:33:36.481Z,11.66
2022-09-24T22:36:02.671Z,11.66
2022-09-24T22:38:30.151Z,11.55
2022-09-24T22:40:58.955Z,11.50
2022-09-24T22:43:24.772Z,11.52
2022-09-24T22:45:59.503Z,11.45
2022-09-24T22:48:25.366Z,11.50
2022-09-24T22:50:51.371Z,11.55
2022-09-24T22:53:17.442Z,11.55
2022-09-24T22:55:43.361Z,11.50
2022-09-24T22:58:09.152Z,11.44
2022-09-24T23:00:35.914Z,11.48
2022-09-24T23:03:02.254Z,11.52
2022-09-24T23:05:29.012Z,11.57
2022-09-24T23:07:55.438Z,11.58
2022-09-24T23:10:21.407Z,11.44
2022-09-24T23:12:47.479Z,11.51
2022-09-24T23:15:13.627Z,11.45
2022-09-24T23:17:39.453Z,11.40
2022-09-24T23:20:07.162Z,11.40
2022-09-24T23:22:32.916Z,11.43
2022-09-24T23:24:58.801Z,11.50
2022-09-24T23:27:24.881Z,11.54
2022-09-24T23:29:51.961Z,11.66
2022-09-24T23:32:18.601Z,11.52
2022-09-24T23:34:45.801Z,11.57
2022-09-24T23:37:11.982Z,11.46
2022-09-24T23:39:38.723Z,11.54
2022-09-24T23:42:06.227Z,11.48
2022-09-24T23:44:33.517Z,11.45
2022-09-24T23:47:00.660Z,11.46
2022-09-24T23:49:27.227Z,11.48
2022-09-24T23:51:53.157Z,11.42
2022-09-24T23:54:19.456Z,11.46
2022-09-24T23:56:45.304Z,11.35
2022-09-24T23:59:11.201Z,11.48
